Terminal Aerodrome Forecast
Issued by NWS

Home | Current Version | Previous Version | Text Only | Print | Product List | Glossary On
Versions: 1 2 3 4 5 6 7 8 9 10 11 12 13 14 15 16 17 18 19 20 21 22 23 24 25 26 27 28 29 30 31 32 33 34 35 36 37 38 39 40 41 42 43 44 45
000
FTAK31 PAFA 250527
TAFASC
TAF
PASC 250527Z 2506/2606 08018KT P6SM OVC004
     FM250800 08016KT 3SM BR OVC004
     FM251200 08012KT 1/2SM FG OVC002
     FM251800 08012KT 1 1/2SM BR BKN003 BKN007
     FM252100 07016KT 4SM BR SCT003 BKN007=

USA.gov is the U.S. government's official web portal to all federal, state and local government web resources and services.